Nearby METAR Reports

 

KSJC - San Jose, California, USA
Distance from station: NE 14km
Actualización: 05/08/2021 11:53
Cubierto
Cubierto
 Viento del calm
Viento: Calma
Temperatura: 17°C
Rocío: 13°C
Humedad: 77%
Barómetro: 1015.6 hPa
Clouds: Cubierto
Visibility: 16 km
Cloud details: Cubierto 396 m
2021/08/05 09:53 KSJC 050953Z AUTO 00000KT 10SM OVC013 17/13 A2999 RMK AO2 SLP153 T01670128
KNUQ - Moffett Nas/Mtn, California, USA
Distance from station: N 14km
Actualización: 05/08/2021 11:55
Cubierto
Cubierto
 Viento del calm
Viento: Calma
Temperatura: 15°C
Rocío: 13°C
Humedad: 88%
Barómetro: 1015.6 hPa
Clouds: Cubierto
Visibility: 16 km
Cloud details: Cubierto 945 m
2021/08/05 09:55 KNUQ 050955Z AUTO 00000KT 10SM OVC031 15/13 A2999 RMK AO2
 
KPAO - Palo Alto, California, USA
Distance from station: NNO 23km
Actualización: 05/08/2021 05:47
NOT Current
Few Clouds
Few Clouds
 Viento del NO
Viento: NO 9 km/h
Temperatura: 16°C
Rocío: 13°C
Humedad: 83%
Barómetro: 1014.9 hPa
Clouds: Few Clouds
Visibility: 16 km
Cloud details: Few Clouds 457 m
2021/08/05 03:47 KPAO 050347Z 32005KT 10SM FEW015 16/13 A2997 RMK LAST
KRHV - San Jose/Reid, California, USA
Distance from station: ENE 19km
Actualización: 05/08/2021 06:55
NOT Current
Despejado
Despejado
 Viento del NO
Viento: NO 9 km/h
Temperatura: 17°C
Rocío: 13°C
Humedad: 77%
Barómetro: 1015.9 hPa
Clouds: Despejado
Visibility: 16 km
2021/08/05 04:55 KRHV 050455Z 32005KT 10SM SKC 17/13 A3000 RMK LAST
 
KOAK - Oakland, California, USA
Distance from station: NNO 50km
Actualización: 05/08/2021 11:53
Cubierto
Cubierto
 Viento del OSO
Viento: OSO 13 km/h
Temperatura: 16°C
Rocío: 13°C
Humedad: 83%
Barómetro: 1015.6 hPa
Clouds: Cubierto
Visibility: 11 km
Cloud details: Few Clouds 122 m
Cubierto 305 m
2021/08/05 09:53 KOAK 050953Z 24007KT 7SM FEW004 OVC010 16/13 A2999 RMK AO2 DZE13 SLP155 P0000 T01560128
KSQL - San Carlos Airpo, California, USA
Distance from station: NO 34km
Actualización: 05/08/2021 12:15
Few Clouds
Few Clouds
 Viento del ONO
Viento: ONO 11 km/h
Temperatura: 15°C
Rocío: 12°C
Humedad: 82%
Barómetro: 1015.9 hPa
Clouds: Few Clouds
Visibility: 16 km
Cloud details: Few Clouds 427 m
2021/08/05 10:15 KSQL 051015Z AUTO 29006KT 10SM FEW014 15/12 A3000 RMK AO2
 
KSFO - San Francisco, California, USA
Distance from station: NO 49km
Actualización: 05/08/2021 11:56
Cubierto
Cubierto
 Viento del O
Viento: O 13 km/h
Temperatura: 15°C
Rocío: 13°C
Humedad: 88%
Barómetro: 1015.2 hPa
Clouds: Cubierto
Visibility: 16 km
Cloud details: Few Clouds 122 m
Cubierto 335 m
2021/08/05 09:56 KSFO 050956Z 26007KT 10SM FEW004 OVC011 15/13 A2998 RMK AO2 SLP153 T01500128 $
KE16 - San Martin, California, USA
Distance from station: ESE 43km
Actualización: 05/08/2021 11:55
Cubierto
Cubierto
 Viento del SSE
Viento: SSE 7 km/h
Temperatura: 14°C
Rocío: 12°C
Humedad: 88%
Barómetro: 1016.6 hPa
Clouds: Cubierto
Visibility: 16 km
Cloud details: Cubierto 366 m
2021/08/05 09:55 KE16 050955Z AUTO 15004KT 10SM OVC012 14/12 A3002 RMK AO2 PWINO PNO
 
KWVI - Watsonville, California, USA
Distance from station: SSE 44km
Actualización: 05/08/2021 11:53
Mist, Cubierto
Mist, Cubierto
 Viento del E
Viento: E 6 km/h
Temperatura: 14°C
Rocío: 13°C
Humedad: 94%
Barómetro: 1015.9 hPa
Resumen: Mist
Clouds: Cubierto
Visibility: 8 km
Cloud details: Cubierto 91 m
2021/08/05 09:53 KWVI 050953Z AUTO 09003KT 5SM BR OVC003 14/13 A3000 RMK AO2 SLP158 T01390133
KHAF - Half Moon Bay, California, USA
Distance from station: ONO 50km
Actualización: 09/07/2021 16:35
NOT Current
Lluvia débil, Despejado
Lluvia débil, Despejado
 
Temperatura: 13°C
Rocío: 12°C
Humedad: 94%
Barómetro: 1012.9 hPa
Resumen: Lluvia débil
Clouds: Despejado
Visibility: 6 km
2021/07/09 14:35 KHAF 091435Z AUTO 4SM -RA CLR 13/12 A2991 RMK AO2
 
KHWD - Hayward, California, USA
Distance from station: N 44km
Actualización: 05/08/2021 11:54
Cubierto
Cubierto
 Viento del O
Viento: O 13 km/h
Temperatura: 16°C
Rocío: 13°C
Humedad: 83%
Barómetro: 1015.2 hPa
Clouds: Cubierto
Visibility: 16 km
Cloud details: Cubierto 396 m
2021/08/05 09:54 KHWD 050954Z 27007KT 10SM OVC013 16/13 A2998 RMK AO2 SLP161 T01560128
KLVK - Livermore, California, USA
Distance from station: NNE 51km
Actualización: 05/08/2021 11:53
Cubierto
Cubierto
 Viento del O
Viento: O 11 km/h
Temperatura: 15°C
Rocío: 13°C
Humedad: 88%
Barómetro: 1014.9 hPa
Clouds: Cubierto
Visibility: 16 km
Cloud details: Cubierto 335 m
2021/08/05 09:53 KLVK 050953Z AUTO 28006KT 10SM OVC011 15/13 A2997 RMK AO2 SLP145 T01500128